sensor_id;sensor_type;location;lat;lon;timestamp;P1;P2;P0
77515;PMS5003;66627;29.424;-98.496;2023-06-14T00:00:58;42;39;
77515;PMS5003;66627;29.424;-98.496;2023-06-14T00:03:23;48;47;
77515;PMS5003;66627;29.424;-98.496;2023-06-14T00:05:49;51;47;
77515;PMS5003;66627;29.424;-98.496;2023-06-14T00:08:14;47;43;
77515;PMS5003;66627;29.424;-98.496;2023-06-14T00:10:39;44;43;
77515;PMS5003;66627;29.424;-98.496;2023-06-14T00:13:04;54;49;
77515;PMS5003;66627;29.424;-98.496;2023-06-14T00:15:30;51;47;
77515;PMS5003;66627;29.424;-98.496;2023-06-14T00:17:55;51;45;
77515;PMS5003;66627;29.424;-98.496;2023-06-14T00:20:21;49;43;
77515;PMS5003;66627;29.424;-98.496;2023-06-14T00:22:46;51;44;
77515;PMS5003;66627;29.424;-98.496;2023-06-14T00:25:12;54;45;
77515;PMS5003;66627;29.424;-98.496;2023-06-14T00:27:37;49;43;
77515;PMS5003;66627;29.424;-98.496;2023-06-14T00:30:03;42;42;
77515;PMS5003;66627;29.424;-98.496;2023-06-14T00:32:28;47;45;
77515;PMS5003;66627;29.424;-98.496;2023-06-14T00:34:54;50;45;
77515;PMS5003;66627;29.424;-98.496;2023-06-14T00:37:19;48;46;
77515;PMS5003;66627;29.424;-98.496;2023-06-14T00:39:44;45;44;
77515;PMS5003;66627;29.424;-98.496;2023-06-14T00:42:10;50;46;
77515;PMS5003;66627;29.424;-98.496;2023-06-14T00:44:35;42;41;
77515;PMS5003;66627;29.424;-98.496;2023-06-14T00:47:00;53;51;
77515;PMS5003;66627;29.424;-98.496;2023-06-14T00:49:25;55;46;
77515;PMS5003;66627;29.424;-98.496;2023-06-14T00:51:51;52;47;
77515;PMS5003;66627;29.424;-98.496;2023-06-14T00:54:17;45;42;
77515;PMS5003;66627;29.424;-98.496;2023-06-14T00:56:43;50;46;
77515;PMS5003;66627;29.424;-98.496;2023-06-14T00:59:09;43;42;
77515;PMS5003;66627;29.424;-98.496;2023-06-14T01:01:33;47;46;
77515;PMS5003;66627;29.424;-98.496;2023-06-14T01:03:59;49;43;
77515;PMS5003;66627;29.424;-98.496;2023-06-14T01:06:28;49;47;
77515;PMS5003;66627;29.424;-98.496;2023-06-14T01:08:50;44;41;
77515;PMS5003;66627;29.424;-98.496;2023-06-14T01:11:18;51;46;
77515;PMS5003;66627;29.424;-98.496;2023-06-14T01:13:42;53;48;
77515;PMS5003;66627;29.424;-98.496;2023-06-14T01:16:06;49;45;
77515;PMS5003;66627;29.424;-98.496;2023-06-14T01:18:32;50;44;
77515;PMS5003;66627;29.424;-98.496;2023-06-14T01:20:57;47;44;
77515;PMS5003;66627;29.424;-98.496;2023-06-14T01:23:22;45;42;
77515;PMS5003;66627;29.424;-98.496;2023-06-14T01:25:48;49;44;
77515;PMS5003;66627;29.424;-98.496;2023-06-14T01:28:15;70;62;
77515;PMS5003;66627;29.424;-98.496;2023-06-14T01:30:40;76;67;
77515;PMS5003;66627;29.424;-98.496;2023-06-14T01:33:04;67;63;
77515;PMS5003;66627;29.424;-98.496;2023-06-14T01:35:29;56;51;
77515;PMS5003;66627;29.424;-98.496;2023-06-14T01:37:55;48;44;
77515;PMS5003;66627;29.424;-98.496;2023-06-14T01:40:21;55;49;
77515;PMS5003;66627;29.424;-98.496;2023-06-14T01:42:46;49;48;
77515;PMS5003;66627;29.424;-98.496;2023-06-14T01:45:11;47;39;
77515;PMS5003;66627;29.424;-98.496;2023-06-14T01:47:36;39;39;
77515;PMS5003;66627;29.424;-98.496;2023-06-14T01:50:02;49;45;
77515;PMS5003;66627;29.424;-98.496;2023-06-14T01:52:27;44;40;
77515;PMS5003;66627;29.424;-98.496;2023-06-14T01:54:53;50;46;
77515;PMS5003;66627;29.424;-98.496;2023-06-14T01:57:19;44;39;
77515;PMS5003;66627;29.424;-98.496;2023-06-14T01:59:44;46;43;
77515;PMS5003;66627;29.424;-98.496;2023-06-14T02:02:09;50;44;
77515;PMS5003;66627;29.424;-98.496;2023-06-14T02:04:34;46;42;
77515;PMS5003;66627;29.424;-98.496;2023-06-14T02:07:00;48;40;
77515;PMS5003;66627;29.424;-98.496;2023-06-14T02:09:26;48;43;
77515;PMS5003;66627;29.424;-98.496;2023-06-14T02:11:51;49;43;
77515;PMS5003;66627;29.424;-98.496;2023-06-14T02:14:17;50;44;
77515;PMS5003;66627;29.424;-98.496;2023-06-14T02:16:41;47;46;
77515;PMS5003;66627;29.424;-98.496;2023-06-14T02:19:07;44;41;
77515;PMS5003;66627;29.424;-98.496;2023-06-14T02:21:33;50;47;
77515;PMS5003;66627;29.424;-98.496;2023-06-14T02:23:58;51;44;
77515;PMS5003;66627;29.424;-98.496;2023-06-14T02:26:23;43;40;
77515;PMS5003;66627;29.424;-98.496;2023-06-14T02:28:48;43;41;
77515;PMS5003;66627;29.424;-98.496;2023-06-14T02:31:14;44;40;
77515;PMS5003;66627;29.424;-98.496;2023-06-14T02:33:39;41;37;
77515;PMS5003;66627;29.424;-98.496;2023-06-14T02:36:05;44;43;
77515;PMS5003;66627;29.424;-98.496;2023-06-14T02:38:31;47;45;
77515;PMS5003;66627;29.424;-98.496;2023-06-14T02:40:56;45;41;
77515;PMS5003;66627;29.424;-98.496;2023-06-14T02:43:21;46;39;
77515;PMS5003;66627;29.424;-98.496;2023-06-14T02:45:47;41;41;
77515;PMS5003;66627;29.424;-98.496;2023-06-14T02:48:12;43;38;
77515;PMS5003;66627;29.424;-98.496;2023-06-14T02:50:38;38;37;
77515;PMS5003;66627;29.424;-98.496;2023-06-14T02:53:03;49;45;
77515;PMS5003;66627;29.424;-98.496;2023-06-14T02:55:29;50;46;
77515;PMS5003;66627;29.424;-98.496;2023-06-14T02:57:54;45;41;
77515;PMS5003;66627;29.424;-98.496;2023-06-14T03:00:20;41;39;
77515;PMS5003;66627;29.424;-98.496;2023-06-14T03:02:45;52;49;
77515;PMS5003;66627;29.424;-98.496;2023-06-14T03:05:11;45;39;
77515;PMS5003;66627;29.424;-98.496;2023-06-14T03:07:36;44;41;
77515;PMS5003;66627;29.424;-98.496;2023-06-14T03:10:02;45;40;
77515;PMS5003;66627;29.424;-98.496;2023-06-14T03:12:27;38;38;
77515;PMS5003;66627;29.424;-98.496;2023-06-14T03:14:53;43;37;
77515;PMS5003;66627;29.424;-98.496;2023-06-14T03:17:18;40;39;
77515;PMS5003;66627;29.424;-98.496;2023-06-14T03:19:43;49;43;
77515;PMS5003;66627;29.424;-98.496;2023-06-14T03:22:09;44;42;
77515;PMS5003;66627;29.424;-98.496;2023-06-14T03:24:34;47;44;
77515;PMS5003;66627;29.424;-98.496;2023-06-14T03:26:59;45;40;
77515;PMS5003;66627;29.424;-98.496;2023-06-14T03:29:25;46;43;
77515;PMS5003;66627;29.424;-98.496;2023-06-14T03:31:56;43;41;
77515;PMS5003;66627;29.424;-98.496;2023-06-14T03:34:16;39;38;
77515;PMS5003;66627;29.424;-98.496;2023-06-14T03:36:42;42;37;
77515;PMS5003;66627;29.424;-98.496;2023-06-14T03:39:07;44;42;
77515;PMS5003;66627;29.424;-98.496;2023-06-14T03:41:32;43;39;
77515;PMS5003;66627;29.424;-98.496;2023-06-14T03:43:57;45;38;
77515;PMS5003;66627;29.424;-98.496;2023-06-14T03:46:23;40;37;
77515;PMS5003;66627;29.424;-98.496;2023-06-14T03:48:48;43;39;
77515;PMS5003;66627;29.424;-98.496;2023-06-14T03:51:14;46;42;
77515;PMS5003;66627;29.424;-98.496;2023-06-14T03:53:39;38;38;
77515;PMS5003;66627;29.424;-98.496;2023-06-14T03:56:05;42;39;
77515;PMS5003;66627;29.424;-98.496;2023-06-14T03:58:30;40;36;
77515;PMS5003;66627;29.424;-98.496;2023-06-14T04:00:56;43;37;
77515;PMS5003;66627;29.424;-98.496;2023-06-14T04:03:21;45;41;
77515;PMS5003;66627;29.424;-98.496;2023-06-14T04:05:47;46;44;
77515;PMS5003;66627;29.424;-98.496;2023-06-14T04:08:12;49;43;
77515;PMS5003;66627;29.424;-98.496;2023-06-14T04:10:38;46;43;
77515;PMS5003;66627;29.424;-98.496;2023-06-14T04:13:04;41;35;
77515;PMS5003;66627;29.424;-98.496;2023-06-14T04:15:29;45;41;
77515;PMS5003;66627;29.424;-98.496;2023-06-14T04:17:54;44;39;
77515;PMS5003;66627;29.424;-98.496;2023-06-14T04:20:20;43;36;
77515;PMS5003;66627;29.424;-98.496;2023-06-14T04:22:45;46;45;
77515;PMS5003;66627;29.424;-98.496;2023-06-14T04:25:10;43;37;
77515;PMS5003;66627;29.424;-98.496;2023-06-14T04:27:37;46;40;
77515;PMS5003;66627;29.424;-98.496;2023-06-14T04:30:02;45;42;
77515;PMS5003;66627;29.424;-98.496;2023-06-14T04:32:28;53;42;
77515;PMS5003;66627;29.424;-98.496;2023-06-14T04:34:58;50;43;
77515;PMS5003;66627;29.424;-98.496;2023-06-14T04:37:18;50;45;
77515;PMS5003;66627;29.424;-98.496;2023-06-14T04:39:43;43;39;
77515;PMS5003;66627;29.424;-98.496;2023-06-14T04:42:09;41;38;
77515;PMS5003;66627;29.424;-98.496;2023-06-14T04:44:34;44;42;
77515;PMS5003;66627;29.424;-98.496;2023-06-14T04:46:59;43;41;
77515;PMS5003;66627;29.424;-98.496;2023-06-14T04:49:25;45;39;
77515;PMS5003;66627;29.424;-98.496;2023-06-14T04:51:50;39;38;
77515;PMS5003;66627;29.424;-98.496;2023-06-14T04:54:16;47;45;
77515;PMS5003;66627;29.424;-98.496;2023-06-14T04:56:41;43;37;
77515;PMS5003;66627;29.424;-98.496;2023-06-14T04:59:07;43;37;
77515;PMS5003;66627;29.424;-98.496;2023-06-14T05:01:32;40;36;
77515;PMS5003;66627;29.424;-98.496;2023-06-14T05:03:57;45;40;
77515;PMS5003;66627;29.424;-98.496;2023-06-14T05:06:22;41;40;
77515;PMS5003;66627;29.424;-98.496;2023-06-14T05:08:48;48;40;
77515;PMS5003;66627;29.424;-98.496;2023-06-14T05:11:13;45;40;
77515;PMS5003;66627;29.424;-98.496;2023-06-14T05:13:39;42;41;
77515;PMS5003;66627;29.424;-98.496;2023-06-14T05:16:05;49;45;
77515;PMS5003;66627;29.424;-98.496;2023-06-14T05:18:30;54;47;
77515;PMS5003;66627;29.424;-98.496;2023-06-14T05:20:55;42;39;
77515;PMS5003;66627;29.424;-98.496;2023-06-14T05:23:20;51;46;
77515;PMS5003;66627;29.424;-98.496;2023-06-14T05:25:46;47;45;
77515;PMS5003;66627;29.424;-98.496;2023-06-14T05:28:11;42;40;
77515;PMS5003;66627;29.424;-98.496;2023-06-14T05:30:37;43;43;
77515;PMS5003;66627;29.424;-98.496;2023-06-14T05:33:02;48;43;
77515;PMS5003;66627;29.424;-98.496;2023-06-14T05:35:27;51;46;
77515;PMS5003;66627;29.424;-98.496;2023-06-14T05:37:53;49;47;
77515;PMS5003;66627;29.424;-98.496;2023-06-14T05:40:19;52;46;
77515;PMS5003;66627;29.424;-98.496;2023-06-14T05:42:45;44;41;
77515;PMS5003;66627;29.424;-98.496;2023-06-14T05:45:10;46;41;
77515;PMS5003;66627;29.424;-98.496;2023-06-14T05:47:36;39;36;
77515;PMS5003;66627;29.424;-98.496;2023-06-14T05:50:01;47;40;
77515;PMS5003;66627;29.424;-98.496;2023-06-14T05:52:27;47;43;
77515;PMS5003;66627;29.424;-98.496;2023-06-14T05:54:52;47;40;
77515;PMS5003;66627;29.424;-98.496;2023-06-14T05:57:18;51;45;
77515;PMS5003;66627;29.424;-98.496;2023-06-14T05:59:44;46;39;
77515;PMS5003;66627;29.424;-98.496;2023-06-14T06:02:09;50;47;
77515;PMS5003;66627;29.424;-98.496;2023-06-14T06:04:34;48;42;
77515;PMS5003;66627;29.424;-98.496;2023-06-14T06:07:00;52;46;
77515;PMS5003;66627;29.424;-98.496;2023-06-14T06:09:25;42;41;
77515;PMS5003;66627;29.424;-98.496;2023-06-14T06:11:50;45;40;
77515;PMS5003;66627;29.424;-98.496;2023-06-14T06:14:17;44;40;
77515;PMS5003;66627;29.424;-98.496;2023-06-14T06:16:42;46;43;
77515;PMS5003;66627;29.424;-98.496;2023-06-14T06:19:07;47;43;
77515;PMS5003;66627;29.424;-98.496;2023-06-14T06:21:32;48;43;
77515;PMS5003;66627;29.424;-98.496;2023-06-14T06:23:58;38;38;
77515;PMS5003;66627;29.424;-98.496;2023-06-14T06:26:24;40;40;
77515;PMS5003;66627;29.424;-98.496;2023-06-14T06:28:49;41;38;
77515;PMS5003;66627;29.424;-98.496;2023-06-14T06:31:15;46;43;
77515;PMS5003;66627;29.424;-98.496;2023-06-14T06:33:41;43;42;
77515;PMS5003;66627;29.424;-98.496;2023-06-14T06:36:06;45;42;
77515;PMS5003;66627;29.424;-98.496;2023-06-14T06:38:31;48;43;
77515;PMS5003;66627;29.424;-98.496;2023-06-14T06:40:56;42;37;
77515;PMS5003;66627;29.424;-98.496;2023-06-14T06:43:22;38;38;
77515;PMS5003;66627;29.424;-98.496;2023-06-14T06:45:47;42;39;
77515;PMS5003;66627;29.424;-98.496;2023-06-14T06:48:13;54;46;
77515;PMS5003;66627;29.424;-98.496;2023-06-14T06:50:38;48;42;
77515;PMS5003;66627;29.424;-98.496;2023-06-14T06:53:03;44;43;
77515;PMS5003;66627;29.424;-98.496;2023-06-14T06:55:29;45;40;
77515;PMS5003;66627;29.424;-98.496;2023-06-14T06:57:54;50;45;
77515;PMS5003;66627;29.424;-98.496;2023-06-14T07:00:20;43;42;
77515;PMS5003;66627;29.424;-98.496;2023-06-14T07:02:45;53;50;
77515;PMS5003;66627;29.424;-98.496;2023-06-14T07:05:10;46;44;
77515;PMS5003;66627;29.424;-98.496;2023-06-14T07:07:35;47;46;
77515;PMS5003;66627;29.424;-98.496;2023-06-14T07:10:01;49;47;
77515;PMS5003;66627;29.424;-98.496;2023-06-14T07:12:27;52;50;
77515;PMS5003;66627;29.424;-98.496;2023-06-14T07:14:52;48;42;
77515;PMS5003;66627;29.424;-98.496;2023-06-14T07:17:18;50;47;
77515;PMS5003;66627;29.424;-98.496;2023-06-14T07:19:43;54;48;
77515;PMS5003;66627;29.424;-98.496;2023-06-14T07:22:09;50;43;
77515;PMS5003;66627;29.424;-98.496;2023-06-14T07:24:35;43;40;
77515;PMS5003;66627;29.424;-98.496;2023-06-14T07:27:00;51;44;
77515;PMS5003;66627;29.424;-98.496;2023-06-14T07:29:26;53;47;
77515;PMS5003;66627;29.424;-98.496;2023-06-14T07:31:53;52;45;
77515;PMS5003;66627;29.424;-98.496;2023-06-14T07:34:17;58;51;
77515;PMS5003;66627;29.424;-98.496;2023-06-14T07:36:42;57;51;
77515;PMS5003;66627;29.424;-98.496;2023-06-14T07:39:08;50;48;
77515;PMS5003;66627;29.424;-98.496;2023-06-14T07:41:33;46;43;
77515;PMS5003;66627;29.424;-98.496;2023-06-14T07:43:59;48;43;
77515;PMS5003;66627;29.424;-98.496;2023-06-14T07:46:25;60;54;
77515;PMS5003;66627;29.424;-98.496;2023-06-14T07:48:50;56;51;
77515;PMS5003;66627;29.424;-98.496;2023-06-14T07:51:15;49;44;
77515;PMS5003;66627;29.424;-98.496;2023-06-14T07:53:40;59;50;
77515;PMS5003;66627;29.424;-98.496;2023-06-14T07:56:06;48;45;
77515;PMS5003;66627;29.424;-98.496;2023-06-14T07:58:31;54;46;
77515;PMS5003;66627;29.424;-98.496;2023-06-14T08:00:57;47;44;
77515;PMS5003;66627;29.424;-98.496;2023-06-14T08:03:22;46;43;
77515;PMS5003;66627;29.424;-98.496;2023-06-14T08:05:47;57;51;
77515;PMS5003;66627;29.424;-98.496;2023-06-14T08:08:12;48;45;
77515;PMS5003;66627;29.424;-98.496;2023-06-14T08:10:38;45;45;
77515;PMS5003;66627;29.424;-98.496;2023-06-14T08:13:06;51;51;
77515;PMS5003;66627;29.424;-98.496;2023-06-14T08:15:29;44;42;
77515;PMS5003;66627;29.424;-98.496;2023-06-14T08:17:54;44;43;
77515;PMS5003;66627;29.424;-98.496;2023-06-14T08:20:19;43;42;
77515;PMS5003;66627;29.424;-98.496;2023-06-14T08:22:45;48;44;
77515;PMS5003;66627;29.424;-98.496;2023-06-14T08:25:11;53;43;
77515;PMS5003;66627;29.424;-98.496;2023-06-14T08:27:36;49;45;
77515;PMS5003;66627;29.424;-98.496;2023-06-14T08:30:02;51;46;
77515;PMS5003;66627;29.424;-98.496;2023-06-14T08:32:27;48;45;
77515;PMS5003;66627;29.424;-98.496;2023-06-14T08:34:53;52;45;
77515;PMS5003;66627;29.424;-98.496;2023-06-14T08:37:18;52;41;
77515;PMS5003;66627;29.424;-98.496;2023-06-14T08:39:44;46;43;
77515;PMS5003;66627;29.424;-98.496;2023-06-14T08:42:10;47;43;
77515;PMS5003;66627;29.424;-98.496;2023-06-14T08:44:35;55;47;
77515;PMS5003;66627;29.424;-98.496;2023-06-14T08:47:01;43;39;
77515;PMS5003;66627;29.424;-98.496;2023-06-14T08:49:26;44;42;
77515;PMS5003;66627;29.424;-98.496;2023-06-14T08:51:53;52;50;
77515;PMS5003;66627;29.424;-98.496;2023-06-14T08:54:17;56;51;
77515;PMS5003;66627;29.424;-98.496;2023-06-14T08:56:43;50;45;
77515;PMS5003;66627;29.424;-98.496;2023-06-14T08:59:08;52;47;
77515;PMS5003;66627;29.424;-98.496;2023-06-14T09:01:34;50;43;
77515;PMS5003;66627;29.424;-98.496;2023-06-14T09:03:59;56;50;
77515;PMS5003;66627;29.424;-98.496;2023-06-14T09:06:24;53;46;
77515;PMS5003;66627;29.424;-98.496;2023-06-14T09:08:50;58;47;
77515;PMS5003;66627;29.424;-98.496;2023-06-14T09:11:15;54;49;
77515;PMS5003;66627;29.424;-98.496;2023-06-14T09:13:41;58;49;
77515;PMS5003;66627;29.424;-98.496;2023-06-14T09:16:06;58;50;
77515;PMS5003;66627;29.424;-98.496;2023-06-14T09:18:35;51;45;
77515;PMS5003;66627;29.424;-98.496;2023-06-14T09:20:57;54;51;
77515;PMS5003;66627;29.424;-98.496;2023-06-14T09:23:22;58;49;
77515;PMS5003;66627;29.424;-98.496;2023-06-14T09:25:48;55;47;
77515;PMS5003;66627;29.424;-98.496;2023-06-14T09:28:13;56;50;
77515;PMS5003;66627;29.424;-98.496;2023-06-14T09:30:39;64;56;
77515;PMS5003;66627;29.424;-98.496;2023-06-14T09:33:04;53;51;
77515;PMS5003;66627;29.424;-98.496;2023-06-14T09:35:31;58;55;
77515;PMS5003;66627;29.424;-98.496;2023-06-14T09:37:55;57;47;
77515;PMS5003;66627;29.424;-98.496;2023-06-14T09:40:20;56;47;
77515;PMS5003;66627;29.424;-98.496;2023-06-14T09:42:46;53;50;
77515;PMS5003;66627;29.424;-98.496;2023-06-14T09:45:11;56;52;
77515;PMS5003;66627;29.424;-98.496;2023-06-14T09:47:37;55;50;
77515;PMS5003;66627;29.424;-98.496;2023-06-14T09:50:02;53;51;
77515;PMS5003;66627;29.424;-98.496;2023-06-14T09:52:28;51;47;
77515;PMS5003;66627;29.424;-98.496;2023-06-14T09:54:53;49;45;
77515;PMS5003;66627;29.424;-98.496;2023-06-14T09:57:21;57;52;
77515;PMS5003;66627;29.424;-98.496;2023-06-14T09:59:45;53;51;
77515;PMS5003;66627;29.424;-98.496;2023-06-14T10:02:13;62;51;
77515;PMS5003;66627;29.424;-98.496;2023-06-14T10:04:36;50;44;
77515;PMS5003;66627;29.424;-98.496;2023-06-14T10:07:02;51;51;
77515;PMS5003;66627;29.424;-98.496;2023-06-14T10:09:27;58;51;
77515;PMS5003;66627;29.424;-98.496;2023-06-14T10:11:52;55;50;
77515;PMS5003;66627;29.424;-98.496;2023-06-14T10:14:18;58;53;
77515;PMS5003;66627;29.424;-98.496;2023-06-14T10:16:47;52;49;
77515;PMS5003;66627;29.424;-98.496;2023-06-14T10:19:11;59;51;
77515;PMS5003;66627;29.424;-98.496;2023-06-14T10:21:37;46;44;
77515;PMS5003;66627;29.424;-98.496;2023-06-14T10:24:01;48;46;
77515;PMS5003;66627;29.424;-98.496;2023-06-14T10:26:24;56;52;
77515;PMS5003;66627;29.424;-98.496;2023-06-14T10:28:56;60;53;
77515;PMS5003;66627;29.424;-98.496;2023-06-14T10:31:16;60;53;
77515;PMS5003;66627;29.424;-98.496;2023-06-14T10:36:24;52;48;
77515;PMS5003;66627;29.424;-98.496;2023-06-14T10:38:33;58;50;
77515;PMS5003;66627;29.424;-98.496;2023-06-14T10:40:58;56;47;
77515;PMS5003;66627;29.424;-98.496;2023-06-14T10:43:24;58;49;
77515;PMS5003;66627;29.424;-98.496;2023-06-14T10:50:42;54;50;
77515;PMS5003;66627;29.424;-98.496;2023-06-14T10:55:33;60;51;
77515;PMS5003;66627;29.424;-98.496;2023-06-14T10:57:56;57;50;
77515;PMS5003;66627;29.424;-98.496;2023-06-14T11:00:22;57;53;
77515;PMS5003;66627;29.424;-98.496;2023-06-14T11:02:51;60;54;
77515;PMS5003;66627;29.424;-98.496;2023-06-14T11:05:14;57;52;
77515;PMS5003;66627;29.424;-98.496;2023-06-14T11:07:42;50;46;
77515;PMS5003;66627;29.424;-98.496;2023-06-14T11:10:06;53;51;
77515;PMS5003;66627;29.424;-98.496;2023-06-14T11:12:31;52;49;
77515;PMS5003;66627;29.424;-98.496;2023-06-14T11:14:55;46;42;
77515;PMS5003;66627;29.424;-98.496;2023-06-14T11:17:21;56;49;
77515;PMS5003;66627;29.424;-98.496;2023-06-14T11:19:45;57;48;
77515;PMS5003;66627;29.424;-98.496;2023-06-14T11:22:11;51;45;
77515;PMS5003;66627;29.424;-98.496;2023-06-14T11:24:36;57;48;
77515;PMS5003;66627;29.424;-98.496;2023-06-14T11:27:02;66;55;
77515;PMS5003;66627;29.424;-98.496;2023-06-14T11:29:29;58;53;
77515;PMS5003;66627;29.424;-98.496;2023-06-14T11:31:53;66;57;
77515;PMS5003;66627;29.424;-98.496;2023-06-14T11:34:18;58;51;
77515;PMS5003;66627;29.424;-98.496;2023-06-14T11:36:44;56;50;
77515;PMS5003;66627;29.424;-98.496;2023-06-14T11:39:09;58;53;
77515;PMS5003;66627;29.424;-98.496;2023-06-14T11:41:36;52;46;
77515;PMS5003;66627;29.424;-98.496;2023-06-14T11:44:01;55;49;
77515;PMS5003;66627;29.424;-98.496;2023-06-14T11:46:26;58;52;
77515;PMS5003;66627;29.424;-98.496;2023-06-14T11:48:51;54;51;
77515;PMS5003;66627;29.424;-98.496;2023-06-14T11:51:16;56;51;
77515;PMS5003;66627;29.424;-98.496;2023-06-14T11:53:42;66;60;
77515;PMS5003;66627;29.424;-98.496;2023-06-14T11:56:07;54;49;
77515;PMS5003;66627;29.424;-98.496;2023-06-14T11:58:32;56;51;
77515;PMS5003;66627;29.424;-98.496;2023-06-14T12:00:58;58;57;
77515;PMS5003;66627;29.424;-98.496;2023-06-14T12:03:29;65;61;
77515;PMS5003;66627;29.424;-98.496;2023-06-14T12:05:49;56;55;
77515;PMS5003;66627;29.424;-98.496;2023-06-14T12:08:15;61;57;
77515;PMS5003;66627;29.424;-98.496;2023-06-14T12:10:40;63;55;
77515;PMS5003;66627;29.424;-98.496;2023-06-14T12:13:06;60;57;
77515;PMS5003;66627;29.424;-98.496;2023-06-14T12:15:31;62;58;
77515;PMS5003;66627;29.424;-98.496;2023-06-14T12:17:57;60;57;
77515;PMS5003;66627;29.424;-98.496;2023-06-14T12:20:22;61;54;
77515;PMS5003;66627;29.424;-98.496;2023-06-14T12:22:47;65;58;
77515;PMS5003;66627;29.424;-98.496;2023-06-14T12:25:17;71;66;
77515;PMS5003;66627;29.424;-98.496;2023-06-14T12:27:39;74;60;
77515;PMS5003;66627;29.424;-98.496;2023-06-14T12:30:05;62;58;
77515;PMS5003;66627;29.424;-98.496;2023-06-14T12:32:29;68;60;
77515;PMS5003;66627;29.424;-98.496;2023-06-14T12:34:54;65;60;
77515;PMS5003;66627;29.424;-98.496;2023-06-14T12:37:20;63;58;
77515;PMS5003;66627;29.424;-98.496;2023-06-14T12:39:45;60;55;
77515;PMS5003;66627;29.424;-98.496;2023-06-14T12:42:11;68;58;
77515;PMS5003;66627;29.424;-98.496;2023-06-14T12:44:36;63;54;
77515;PMS5003;66627;29.424;-98.496;2023-06-14T12:47:03;67;58;
77515;PMS5003;66627;29.424;-98.496;2023-06-14T12:49:27;71;58;
77515;PMS5003;66627;29.424;-98.496;2023-06-14T12:51:52;62;58;
77515;PMS5003;66627;29.424;-98.496;2023-06-14T12:54:18;67;59;
77515;PMS5003;66627;29.424;-98.496;2023-06-14T12:56:43;63;58;
77515;PMS5003;66627;29.424;-98.496;2023-06-14T12:59:09;58;58;
77515;PMS5003;66627;29.424;-98.496;2023-06-14T13:01:34;62;57;
77515;PMS5003;66627;29.424;-98.496;2023-06-14T13:03:59;64;53;
77515;PMS5003;66627;29.424;-98.496;2023-06-14T13:06:25;70;63;
77515;PMS5003;66627;29.424;-98.496;2023-06-14T13:08:50;65;56;
77515;PMS5003;66627;29.424;-98.496;2023-06-14T13:11:16;70;62;
77515;PMS5003;66627;29.424;-98.496;2023-06-14T13:13:41;63;57;
77515;PMS5003;66627;29.424;-98.496;2023-06-14T13:16:07;55;49;
77515;PMS5003;66627;29.424;-98.496;2023-06-14T13:18:33;62;58;
77515;PMS5003;66627;29.424;-98.496;2023-06-14T13:20:58;58;55;
77515;PMS5003;66627;29.424;-98.496;2023-06-14T13:23:23;62;53;
77515;PMS5003;66627;29.424;-98.496;2023-06-14T13:25:49;72;59;
77515;PMS5003;66627;29.424;-98.496;2023-06-14T13:28:15;55;51;
77515;PMS5003;66627;29.424;-98.496;2023-06-14T13:30:40;66;56;
77515;PMS5003;66627;29.424;-98.496;2023-06-14T13:33:06;61;56;
77515;PMS5003;66627;29.424;-98.496;2023-06-14T13:35:31;58;50;
77515;PMS5003;66627;29.424;-98.496;2023-06-14T13:37:57;61;54;
77515;PMS5003;66627;29.424;-98.496;2023-06-14T13:40:21;46;44;
77515;PMS5003;66627;29.424;-98.496;2023-06-14T13:42:47;64;57;
77515;PMS5003;66627;29.424;-98.496;2023-06-14T13:45:12;55;52;
77515;PMS5003;66627;29.424;-98.496;2023-06-14T13:47:37;56;50;
77515;PMS5003;66627;29.424;-98.496;2023-06-14T13:50:04;55;52;
77515;PMS5003;66627;29.424;-98.496;2023-06-14T13:52:29;57;50;
77515;PMS5003;66627;29.424;-98.496;2023-06-14T13:54:54;61;56;
77515;PMS5003;66627;29.424;-98.496;2023-06-14T13:57:20;64;57;
77515;PMS5003;66627;29.424;-98.496;2023-06-14T13:59:46;59;54;
77515;PMS5003;66627;29.424;-98.496;2023-06-14T14:02:12;68;61;
77515;PMS5003;66627;29.424;-98.496;2023-06-14T14:04:37;69;61;
77515;PMS5003;66627;29.424;-98.496;2023-06-14T14:07:03;61;56;
77515;PMS5003;66627;29.424;-98.496;2023-06-14T14:09:28;59;56;
77515;PMS5003;66627;29.424;-98.496;2023-06-14T14:11:53;65;61;
77515;PMS5003;66627;29.424;-98.496;2023-06-14T14:14:19;60;55;
77515;PMS5003;66627;29.424;-98.496;2023-06-14T14:16:44;57;55;
77515;PMS5003;66627;29.424;-98.496;2023-06-14T14:19:09;65;56;
77515;PMS5003;66627;29.424;-98.496;2023-06-14T14:21:36;57;53;
77515;PMS5003;66627;29.424;-98.496;2023-06-14T14:24:01;70;63;
77515;PMS5003;66627;29.424;-98.496;2023-06-14T14:26:27;62;61;
77515;PMS5003;66627;29.424;-98.496;2023-06-14T14:28:52;64;58;
77515;PMS5003;66627;29.424;-98.496;2023-06-14T14:31:17;59;56;
77515;PMS5003;66627;29.424;-98.496;2023-06-14T14:33:42;63;55;
77515;PMS5003;66627;29.424;-98.496;2023-06-14T14:36:08;60;51;
77515;PMS5003;66627;29.424;-98.496;2023-06-14T14:38:34;61;59;
77515;PMS5003;66627;29.424;-98.496;2023-06-14T14:40:59;59;54;
77515;PMS5003;66627;29.424;-98.496;2023-06-14T14:43:25;61;57;
77515;PMS5003;66627;29.424;-98.496;2023-06-14T14:45:50;58;54;
77515;PMS5003;66627;29.424;-98.496;2023-06-14T14:48:16;67;57;
77515;PMS5003;66627;29.424;-98.496;2023-06-14T14:50:41;61;53;
77515;PMS5003;66627;29.424;-98.496;2023-06-14T14:53:07;65;59;
77515;PMS5003;66627;29.424;-98.496;2023-06-14T14:55:33;62;56;
77515;PMS5003;66627;29.424;-98.496;2023-06-14T14:57:58;61;57;
77515;PMS5003;66627;29.424;-98.496;2023-06-14T15:00:24;66;57;
77515;PMS5003;66627;29.424;-98.496;2023-06-14T15:02:50;66;57;
77515;PMS5003;66627;29.424;-98.496;2023-06-14T15:05:15;73;64;
77515;PMS5003;66627;29.424;-98.496;2023-06-14T15:07:40;68;62;
77515;PMS5003;66627;29.424;-98.496;2023-06-14T15:10:06;72;67;
77515;PMS5003;66627;29.424;-98.496;2023-06-14T15:12:31;62;59;
77515;PMS5003;66627;29.424;-98.496;2023-06-14T15:14:57;59;55;
77515;PMS5003;66627;29.424;-98.496;2023-06-14T15:17:22;60;59;
77515;PMS5003;66627;29.424;-98.496;2023-06-14T15:19:48;69;63;
77515;PMS5003;66627;29.424;-98.496;2023-06-14T15:22:13;62;59;
77515;PMS5003;66627;29.424;-98.496;2023-06-14T15:24:39;63;61;
77515;PMS5003;66627;29.424;-98.496;2023-06-14T15:27:05;51;47;
77515;PMS5003;66627;29.424;-98.496;2023-06-14T15:29:31;61;57;
77515;PMS5003;66627;29.424;-98.496;2023-06-14T15:31:56;72;66;
77515;PMS5003;66627;29.424;-98.496;2023-06-14T15:34:22;66;60;
77515;PMS5003;66627;29.424;-98.496;2023-06-14T15:36:47;69;65;
77515;PMS5003;66627;29.424;-98.496;2023-06-14T15:39:13;57;56;
77515;PMS5003;66627;29.424;-98.496;2023-06-14T15:41:38;63;57;
77515;PMS5003;66627;29.424;-98.496;2023-06-14T15:44:04;64;60;